ADDS METAR Data INFO
IDs: Format: Raw Decoded Include TAF

Data at: 0309 UTC 17 Jan 2018

KANW 170255Z AUTO 21012KT 10SM CLR M12/M17 A3039 RMK AO2 T11191167
KANW 170235Z AUTO 20011KT 10SM CLR M12/M17 A3041 RMK AO2 T11211168
KANW 170215Z AUTO 20010KT 10SM CLR M12/M17 A3042 RMK AO2 T11251170
KANW 170155Z AUTO 19009KT 10SM CLR M12/M17 A3042 RMK AO2 T11241171
KANW 170135Z AUTO 19008KT 10SM CLR M13/M17 A3042 RMK AO2 T11331173
KANW 170115Z AUTO 19008KT 10SM CLR M13/M17 A3043 RMK AO2 T11301172
KANW 170055Z AUTO 19008KT 10SM CLR M13/M17 A3043 RMK AO2 T11311172
KANW 170035Z AUTO 19006KT 10SM CLR M14/M18 A3045 RMK AO2 T11361177
KANW 170015Z AUTO 19007KT 10SM CLR M13/M18 A3045 RMK AO2 T11351176
KANW 162355Z AUTO 20006KT 10SM CLR M12/M17 A3045 RMK AO2 T11211171 11101 21143
KANW 162335Z AUTO 19007KT 10SM CLR M11/M17 A3046 RMK AO2 T11151170
KANW 162315Z AUTO 20009KT 10SM CLR M11/M17 A3047 RMK AO2 T11071169
KANW 162255Z AUTO 20009KT 10SM CLR M10/M17 A3048 RMK AO2 T11051166
KANW 162235Z AUTO 20008KT 10SM CLR M10/M16 A3049 RMK AO2 T11011165
KANW 162215Z AUTO 20010KT 10SM CLR M10/M17 A3050 RMK AO2 T11011167
KANW 162155Z AUTO 20010KT 10SM CLR M10/M17 A3050 RMK AO2 T11021167
KANW 162135Z AUTO 20009KT 10SM CLR M10/M17 A3052 RMK AO2 T11031167
KANW 162115Z AUTO 21008KT 10SM CLR M10/M17 A3052 RMK AO2 T11051170
KANW 162055Z AUTO 20010KT 10SM CLR M10/M17 A3052 RMK AO2 T11051171
KANW 162035Z AUTO 20010KT 10SM CLR M11/M17 A3054 RMK AO2 T11061171
KANW 162015Z AUTO 20009KT 10SM CLR M11/M17 A3054 RMK AO2 T11071171
KANW 161955Z AUTO 22008KT 10SM CLR M11/M17 A3055 RMK AO2 T11081175
KANW 161935Z AUTO 22008KT 10SM CLR M11/M18 A3056 RMK AO2 T11121178
KANW 161915Z AUTO 21006KT 10SM CLR M11/M18 A3057 RMK AO2 T11151180
KANW 161855Z AUTO 22005KT 10SM CLR M12/M19 A3058 RMK AO2 T11221188
KANW 161835Z AUTO 24005KT 10SM CLR M13/M19 A3059 RMK AO2 T11301191
KANW 161815Z AUTO 22004KT 10SM CLR M14/M20 A3060 RMK AO2 T11391199
KANW 161755Z AUTO 22004KT 10SM CLR M14/M21 A3062 RMK AO2 T11441207 11144 21235
KANW 161735Z AUTO 24004KT 10SM CLR M15/M22 A3064 RMK AO2 T11511217
KANW 161715Z AUTO 25004KT 10SM CLR M16/M23 A3065 RMK AO2 T11581226
KANW 161655Z AUTO 27003KT 10SM CLR M16/M23 A3066 RMK AO2 T11651229
KANW 161635Z AUTO 27005KT 10SM CLR M17/M23 A3066 RMK AO2 T11751230
KANW 161615Z AUTO 27005KT 10SM CLR M18/M23 A3066 RMK AO2 T11851234
KANW 161555Z AUTO 26004KT 10SM CLR M19/M24 A3066 RMK AO2 T11951236
KANW 161535Z AUTO 27004KT 10SM CLR M20/M24 A3066 RMK AO2 T12021241
KANW 161515Z AUTO 27005KT 10SM CLR M21/M25 A3066 RMK AO2 T12111247
KANW 161455Z AUTO 28006KT 10SM CLR M22/M25 A3066 RMK AO2 T12191251
KANW 161435Z AUTO 26004KT 10SM CLR M23/M26 A3066 RMK AO2 T12261257
KANW 161415Z AUTO 22003KT 10SM CLR M23/M26 A3066 RMK AO2 T12311262
KANW 161355Z AUTO 28006KT 10SM CLR M23/M26 A3066 RMK AO2 T12321262
KANW 161335Z AUTO 28006KT 10SM CLR M22/M26 A3067 RMK AO2 T12251257
KANW 161315Z AUTO 30007KT 10SM CLR M23/M26 A3067 RMK AO2 T12261257
KANW 161255Z AUTO 30007KT 10SM CLR M22/M26 A3067 RMK AO2 T12251257
KANW 161235Z AUTO 28007KT 10SM CLR M23/M26 A3068 RMK AO2 T12261258
KANW 161215Z AUTO 29008KT 10SM CLR M23/M26 A3068 RMK AO2 T12261258
KANW 161155Z AUTO 30007KT 10SM CLR M23/M26 A3068 RMK AO2 T12261258 11202 21226
KANW 161135Z AUTO 30008KT 10SM CLR M22/M26 A3068 RMK AO2 T12251256
KANW 161115Z AUTO 31007KT 10SM CLR M22/M26 A3069 RMK AO2 T12251256
KANW 161055Z AUTO 31006KT 10SM CLR M22/M26 A3070 RMK AO2 T12251256
KANW 161035Z AUTO 32010KT 10SM CLR M22/M25 A3070 RMK AO2 T12211253
KANW 161015Z AUTO 32010KT 10SM CLR M22/M25 A3070 RMK AO2 T12201253
KANW 160955Z AUTO 32011KT 10SM CLR M22/M25 A3070 RMK AO2 T12201251
KANW 160935Z AUTO 30009KT 10SM CLR M22/M25 A3070 RMK AO2 T12181251
KANW 160915Z AUTO 30009KT 10SM CLR M22/M25 A3070 RMK AO2 T12181250
KANW 160900Z AUTO 31009KT 10SM SCT013 M22/M25 A3070 RMK AO2 T12171250
KANW 160835Z AUTO 31008KT 10SM BKN013 M21/M25 A3069 RMK AO2 T12151249
KANW 160815Z AUTO 32009KT 10SM BKN013 M21/M25 A3069 RMK AO2 T12131246
KANW 160755Z AUTO 32011KT 10SM BKN013 M21/M24 A3069 RMK AO2 T12101245
KANW 160735Z AUTO 33010KT 10SM SCT013 M21/M24 A3070 RMK AO2 T12101245
KANW 160715Z AUTO 33013G16KT 10SM CLR M21/M24 A3071 RMK AO2 T12091245
KANW 160655Z AUTO 32013KT 10SM CLR M21/M24 A3071 RMK AO2 T12061241
KANW 160635Z AUTO 32011G20KT 10SM CLR M20/M24 A3071 RMK AO2 T12051240
KANW 160615Z AUTO 34015G22KT 10SM CLR M20/M24 A3070 RMK AO2 T12051240
KANW 160555Z AUTO 34017KT 10SM CLR M20/M24 A3070 RMK AO2 T12021237 11171 21202 411281202
KANW 160535Z AUTO 33015KT 10SM CLR M20/M24 A3070 RMK AO2 T12011238
KANW 160515Z AUTO 33014G23KT 10SM CLR M20/M24 A3069 RMK AO2 T12001236
KANW 160455Z AUTO 33015G22KT 10SM CLR M20/M23 A3069 RMK AO2 T11981235
KANW 160435Z AUTO 34017G23KT 10SM CLR M19/M23 A3069 RMK AO2 T11951233
KANW 160415Z AUTO 33017G22KT 10SM SCT021 M19/M23 A3068 RMK AO2 T11941232
KANW 160355Z AUTO 33019G24KT 10SM OVC021 M19/M23 A3067 RMK AO2 T11911230
KANW 160335Z AUTO 34020G26KT 10SM OVC021 M19/M23 A3067 RMK AO2 T11881227
KANW 160315Z AUTO 34022G26KT 10SM OVC023 M19/M23 A3067 RMK AO2 T11871226
KANW 160255Z AUTO 34021G26KT 10SM OVC023 M18/M22 A3067 RMK AO2 T11851225
KANW 160235Z AUTO 33018G24KT 10SM BKN021 M18/M22 A3066 RMK AO2 T11851225
KANW 160215Z AUTO 33019G28KT 10SM SCT021 M18/M22 A3065 RMK AO2 T11841225
KANW 160155Z AUTO 34019G25KT 10SM CLR M18/M22 A3065 RMK AO2 T11821223
KANW 160135Z AUTO 33019G24KT 10SM CLR M18/M22 A3065 RMK AO2 T11801220
KANW 160115Z AUTO 33017G23KT 10SM SCT027 M18/M21 A3066 RMK AO2 T11801215
KANW 160055Z AUTO 33016G21KT 10SM BKN029 M18/M21 A3066 RMK AO2 T11761215
KANW 160035Z AUTO 33019G22KT 10SM OVC029 M17/M21 A3065 RMK AO2 T11721210
KANW 160015Z AUTO 33019G26KT 10SM OVC029 M17/M21 A3065 RMK AO2 T11721212
KANW 152355Z AUTO 33019G24KT 10SM OVC027 M17/M21 A3064 RMK AO2 T11701213 11163 21182
KANW 152335Z AUTO 33018G22KT 10SM BKN027 M17/M21 A3064 RMK AO2 T11701213
KANW 152315Z AUTO 33017G23KT 10SM BKN029 M17/M21 A3063 RMK AO2 T11671211
KANW 152255Z AUTO 33014G23KT 10SM SCT027 M16/M21 A3062 RMK AO2 T11651211
KANW 152235Z AUTO 33019G23KT 10SM SCT025 SCT030 M16/M21 A3061 RMK AO2 T11651210
KANW 152215Z AUTO 33016G23KT 10SM BKN025 M16/M21 A3061 RMK AO2 T11651208
KANW 152155Z AUTO 32017G26KT 10SM OVC025 M17/M21 A3060 RMK AO2 T11661208
KANW 152135Z AUTO 33021G27KT 10SM OVC025 M16/M21 A3060 RMK AO2 T11651210
KANW 152115Z AUTO 33018G24KT 10SM BKN027 M16/M21 A3060 RMK AO2 T11641206
KANW 152055Z AUTO 32022G26KT 10SM SCT023 SCT030 M17/M21 A3059 RMK AO2 T11661209
KANW 152035Z AUTO 32021G27KT 10SM BKN023 BKN032 M17/M21 A3059 RMK AO2 T11711213
KANW 152015Z AUTO 32021G24KT 10SM BKN023 M17/M21 A3059 RMK AO2 T11701214
KANW 151955Z AUTO 32024G27KT 10SM SCT023 M17/M22 A3059 RMK AO2 T11731216
KANW 151935Z AUTO 32022G28KT 10SM CLR M17/M22 A3059 RMK AO2 T11751219
KANW 151915Z AUTO 32020G28KT 10SM SCT020 M18/M22 A3059 RMK AO2 T11761218
KANW 151855Z AUTO 33024G29KT 10SM SCT020 M18/M22 A3060 RMK AO2 T11791220
KANW 151835Z AUTO 33019G27KT 10SM BKN021 M18/M22 A3062 RMK AO2 T11801220
KANW 151815Z AUTO 34025KT 10SM SCT023 M18/M22 A3062 RMK AO2 T11801221
KANW 151755Z AUTO 33020G28KT 10SM SCT021 M18/M22 A3062 RMK AO2 T11801220 11180 21200
KANW 151735Z AUTO 33019G28KT 10SM SCT021 M18/M22 A3062 RMK AO2 T11801218
KANW 151715Z AUTO 32022G26KT 10SM SCT022 M18/M22 A3061 RMK AO2 T11841221
KANW 151655Z AUTO 33020G23KT 10SM SCT023 M19/M22 A3061 RMK AO2 T11871221
KANW 151635Z AUTO 33022G27KT 10SM BKN021 M19/M22 A3060 RMK AO2 T11901225
KANW 151615Z AUTO 33020G26KT 10SM CLR M19/M22 A3060 RMK AO2 T11921225
KANW 151555Z AUTO 32020G24KT 10SM SCT022 M19/M22 A3059 RMK AO2 T11951225
KANW 151535Z AUTO 33019G26KT 10SM BKN022 M20/M23 A3059 RMK AO2 T11981227
KANW 151515Z AUTO 32019G24KT 4SM HZ OVC020 M20/M23 A3058 RMK AO2 T11981226